YLVT weather

CLOSED RAAF Williams, Laverton Base
Laverton, Victoria, Australia

Public forecast

Using degrees Celsius for public forecast. Weather courtesy of forecast.io.

METAR (pilot weather report)

Closest report is Melbourne Essendon Airport, 11.0 nm (20.4 km) NE. Retrieved 2018/06/20 16:00 UTC (18 minutes ago):

YMEN 201600Z AUTO 35008KT 9999 // NCD 06/06 Q1027

TAF (pilot weather forecast)

Closest forecast is Melbourne International Airport, 12.3 nm (22.8 km) NNE. Retrieved 2018/06/20 12:00 UTC (4 hours ago):

TAF YMML 201118Z 2012/2118 36010KT CAVOK